sensor_id;sensor_type;location;lat;lon;timestamp;P1;durP1;ratioP1;P2;durP2;ratioP2
20697;SDS011;10508;50.956;4.640;2023-04-03T00:00:03;10.85;;;5.13;;
20697;SDS011;10508;50.956;4.640;2023-04-03T00:02:48;9.35;;;4.53;;
20697;SDS011;10508;50.956;4.640;2023-04-03T00:05:14;10.02;;;4.82;;
20697;SDS011;10508;50.956;4.640;2023-04-03T00:07:40;11.07;;;5.35;;
20697;SDS011;10508;50.956;4.640;2023-04-03T00:10:06;13.45;;;5.05;;
20697;SDS011;10508;50.956;4.640;2023-04-03T00:12:32;7.53;;;4.38;;
20697;SDS011;10508;50.956;4.640;2023-04-03T00:14:57;13.68;;;5.38;;
20697;SDS011;10508;50.956;4.640;2023-04-03T00:17:23;7.93;;;4.53;;
20697;SDS011;10508;50.956;4.640;2023-04-03T00:19:49;11.32;;;4.97;;
20697;SDS011;10508;50.956;4.640;2023-04-03T00:22:14;6.25;;;4.22;;
20697;SDS011;10508;50.956;4.640;2023-04-03T00:24:40;9.00;;;5.00;;
20697;SDS011;10508;50.956;4.640;2023-04-03T00:27:05;11.02;;;5.25;;
20697;SDS011;10508;50.956;4.640;2023-04-03T00:29:31;8.07;;;4.30;;
20697;SDS011;10508;50.956;4.640;2023-04-03T00:32:15;8.73;;;5.10;;
20697;SDS011;10508;50.956;4.640;2023-04-03T00:34:41;10.75;;;5.38;;
20697;SDS011;10508;50.956;4.640;2023-04-03T00:37:06;10.52;;;4.65;;
20697;SDS011;10508;50.956;4.640;2023-04-03T00:39:32;6.53;;;3.92;;
20697;SDS011;10508;50.956;4.640;2023-04-03T00:41:57;13.40;;;4.00;;
20697;SDS011;10508;50.956;4.640;2023-04-03T00:46:58;7.15;;;4.10;;
20697;SDS011;10508;50.956;4.640;2023-04-03T00:49:23;10.93;;;5.05;;
20697;SDS011;10508;50.956;4.640;2023-04-03T00:51:49;6.97;;;3.92;;
20697;SDS011;10508;50.956;4.640;2023-04-03T00:54:16;7.63;;;3.97;;
20697;SDS011;10508;50.956;4.640;2023-04-03T00:56:41;9.02;;;3.92;;
20697;SDS011;10508;50.956;4.640;2023-04-03T00:59:10;6.85;;;3.90;;
20697;SDS011;10508;50.956;4.640;2023-04-03T01:01:41;6.90;;;3.75;;
20697;SDS011;10508;50.956;4.640;2023-04-03T01:04:28;7.55;;;3.10;;
20697;SDS011;10508;50.956;4.640;2023-04-03T01:07:00;9.82;;;4.18;;
20697;SDS011;10508;50.956;4.640;2023-04-03T01:09:29;5.95;;;3.50;;
20697;SDS011;10508;50.956;4.640;2023-04-03T01:12:12;10.38;;;4.32;;
20697;SDS011;10508;50.956;4.640;2023-04-03T01:14:49;9.55;;;4.25;;
20697;SDS011;10508;50.956;4.640;2023-04-03T01:28:19;9.07;;;3.83;;
20697;SDS011;10508;50.956;4.640;2023-04-03T01:33:31;9.02;;;3.83;;
20697;SDS011;10508;50.956;4.640;2023-04-03T01:35:57;7.88;;;4.28;;
20697;SDS011;10508;50.956;4.640;2023-04-03T01:38:22;6.78;;;4.18;;
20697;SDS011;10508;50.956;4.640;2023-04-03T01:40:48;10.00;;;3.70;;
20697;SDS011;10508;50.956;4.640;2023-04-03T01:43:14;9.75;;;4.03;;
20697;SDS011;10508;50.956;4.640;2023-04-03T01:45:40;12.10;;;3.55;;
20697;SDS011;10508;50.956;4.640;2023-04-03T01:48:05;7.00;;;3.75;;
20697;SDS011;10508;50.956;4.640;2023-04-03T01:50:31;10.10;;;3.63;;
20697;SDS011;10508;50.956;4.640;2023-04-03T01:53:15;9.02;;;4.30;;
20697;SDS011;10508;50.956;4.640;2023-04-03T01:55:41;7.60;;;3.42;;
20697;SDS011;10508;50.956;4.640;2023-04-03T01:58:06;17.83;;;4.00;;
20697;SDS011;10508;50.956;4.640;2023-04-03T02:00:32;8.63;;;4.03;;
20697;SDS011;10508;50.956;4.640;2023-04-03T02:02:58;6.85;;;3.70;;
20697;SDS011;10508;50.956;4.640;2023-04-03T02:05:24;7.25;;;3.80;;
20697;SDS011;10508;50.956;4.640;2023-04-03T02:07:50;9.50;;;4.25;;
20697;SDS011;10508;50.956;4.640;2023-04-03T02:10:15;6.90;;;3.90;;
20697;SDS011;10508;50.956;4.640;2023-04-03T02:12:41;10.18;;;4.13;;
20697;SDS011;10508;50.956;4.640;2023-04-03T02:15:07;6.30;;;3.53;;
20697;SDS011;10508;50.956;4.640;2023-04-03T02:17:32;6.13;;;3.33;;
20697;SDS011;10508;50.956;4.640;2023-04-03T02:19:59;9.40;;;4.20;;
20697;SDS011;10508;50.956;4.640;2023-04-03T02:22:25;8.70;;;3.78;;
20697;SDS011;10508;50.956;4.640;2023-04-03T02:24:50;6.90;;;3.88;;
20697;SDS011;10508;50.956;4.640;2023-04-03T02:27:16;7.95;;;3.38;;
20697;SDS011;10508;50.956;4.640;2023-04-03T02:29:42;9.02;;;4.25;;
20697;SDS011;10508;50.956;4.640;2023-04-03T02:32:10;10.75;;;3.72;;
20697;SDS011;10508;50.956;4.640;2023-04-03T02:34:56;5.38;;;3.50;;
20697;SDS011;10508;50.956;4.640;2023-04-03T02:37:24;7.13;;;4.00;;
20697;SDS011;10508;50.956;4.640;2023-04-03T02:39:49;8.30;;;4.20;;
20697;SDS011;10508;50.956;4.640;2023-04-03T02:42:17;7.93;;;4.18;;
20697;SDS011;10508;50.956;4.640;2023-04-03T02:44:45;7.72;;;4.00;;
20697;SDS011;10508;50.956;4.640;2023-04-03T02:47:10;9.77;;;4.18;;
20697;SDS011;10508;50.956;4.640;2023-04-03T02:49:36;10.93;;;3.97;;
20697;SDS011;10508;50.956;4.640;2023-04-03T02:52:02;8.85;;;4.03;;
20697;SDS011;10508;50.956;4.640;2023-04-03T02:54:27;11.52;;;7.85;;
20697;SDS011;10508;50.956;4.640;2023-04-03T02:56:55;12.50;;;7.30;;
20697;SDS011;10508;50.956;4.640;2023-04-03T02:59:21;10.98;;;5.82;;
20697;SDS011;10508;50.956;4.640;2023-04-03T03:01:47;8.35;;;4.70;;
20697;SDS011;10508;50.956;4.640;2023-04-03T03:04:13;10.57;;;4.78;;
20697;SDS011;10508;50.956;4.640;2023-04-03T03:06:38;11.60;;;3.83;;
20697;SDS011;10508;50.956;4.640;2023-04-03T03:09:05;7.88;;;4.15;;
20697;SDS011;10508;50.956;4.640;2023-04-03T03:11:31;8.52;;;3.97;;
20697;SDS011;10508;50.956;4.640;2023-04-03T03:13:57;7.28;;;3.40;;
20697;SDS011;10508;50.956;4.640;2023-04-03T03:16:24;5.80;;;3.40;;
20697;SDS011;10508;50.956;4.640;2023-04-03T03:18:50;7.75;;;4.13;;
20697;SDS011;10508;50.956;4.640;2023-04-03T03:21:17;8.18;;;4.22;;
20697;SDS011;10508;50.956;4.640;2023-04-03T03:23:44;6.97;;;4.30;;
20697;SDS011;10508;50.956;4.640;2023-04-03T03:26:11;11.63;;;4.85;;
20697;SDS011;10508;50.956;4.640;2023-04-03T03:28:38;15.57;;;3.90;;
20697;SDS011;10508;50.956;4.640;2023-04-03T03:31:05;8.60;;;4.07;;
20697;SDS011;10508;50.956;4.640;2023-04-03T03:33:32;10.02;;;4.60;;
20697;SDS011;10508;50.956;4.640;2023-04-03T03:35:58;8.23;;;4.22;;
20697;SDS011;10508;50.956;4.640;2023-04-03T03:38:27;11.18;;;5.22;;
20697;SDS011;10508;50.956;4.640;2023-04-03T03:40:53;10.55;;;4.38;;
20697;SDS011;10508;50.956;4.640;2023-04-03T03:43:18;7.70;;;4.68;;
20697;SDS011;10508;50.956;4.640;2023-04-03T03:45:45;12.75;;;4.82;;
20697;SDS011;10508;50.956;4.640;2023-04-03T03:48:16;9.60;;;4.50;;
20697;SDS011;10508;50.956;4.640;2023-04-03T03:50:44;10.57;;;5.38;;
20697;SDS011;10508;50.956;4.640;2023-04-03T03:53:10;10.38;;;4.95;;
20697;SDS011;10508;50.956;4.640;2023-04-03T03:55:35;9.18;;;4.70;;
20697;SDS011;10508;50.956;4.640;2023-04-03T03:58:01;9.02;;;5.00;;
20697;SDS011;10508;50.956;4.640;2023-04-03T04:00:41;12.70;;;4.78;;
20697;SDS011;10508;50.956;4.640;2023-04-03T04:03:07;9.98;;;4.72;;
20697;SDS011;10508;50.956;4.640;2023-04-03T04:05:33;10.48;;;4.88;;
20697;SDS011;10508;50.956;4.640;2023-04-03T04:07:58;9.52;;;4.90;;
20697;SDS011;10508;50.956;4.640;2023-04-03T04:10:24;10.20;;;4.90;;
20697;SDS011;10508;50.956;4.640;2023-04-03T04:12:49;9.40;;;4.47;;
20697;SDS011;10508;50.956;4.640;2023-04-03T04:15:16;9.73;;;4.88;;
20697;SDS011;10508;50.956;4.640;2023-04-03T04:17:42;12.85;;;4.75;;
20697;SDS011;10508;50.956;4.640;2023-04-03T04:20:08;7.88;;;4.63;;
20697;SDS011;10508;50.956;4.640;2023-04-03T04:22:34;9.00;;;4.70;;
20697;SDS011;10508;50.956;4.640;2023-04-03T04:24:59;12.10;;;5.85;;
20697;SDS011;10508;50.956;4.640;2023-04-03T04:27:25;17.58;;;6.82;;
20697;SDS011;10508;50.956;4.640;2023-04-03T04:29:51;23.17;;;6.45;;
20697;SDS011;10508;50.956;4.640;2023-04-03T04:32:16;11.32;;;5.90;;
20697;SDS011;10508;50.956;4.640;2023-04-03T04:34:42;13.98;;;6.30;;
20697;SDS011;10508;50.956;4.640;2023-04-03T04:37:07;11.75;;;5.38;;
20697;SDS011;10508;50.956;4.640;2023-04-03T04:39:33;10.02;;;4.80;;
20697;SDS011;10508;50.956;4.640;2023-04-03T04:41:59;7.75;;;4.90;;
20697;SDS011;10508;50.956;4.640;2023-04-03T04:44:25;6.60;;;4.55;;
20697;SDS011;10508;50.956;4.640;2023-04-03T04:46:50;10.52;;;5.95;;
20697;SDS011;10508;50.956;4.640;2023-04-03T04:49:16;10.60;;;5.20;;
20697;SDS011;10508;50.956;4.640;2023-04-03T04:51:41;8.27;;;5.20;;
20697;SDS011;10508;50.956;4.640;2023-04-03T04:54:07;9.23;;;4.90;;
20697;SDS011;10508;50.956;4.640;2023-04-03T04:56:33;12.23;;;5.50;;
20697;SDS011;10508;50.956;4.640;2023-04-03T04:58:58;12.27;;;5.95;;
20697;SDS011;10508;50.956;4.640;2023-04-03T05:01:24;13.38;;;6.22;;
20697;SDS011;10508;50.956;4.640;2023-04-03T05:03:49;8.50;;;5.05;;
20697;SDS011;10508;50.956;4.640;2023-04-03T05:06:15;12.88;;;5.85;;
20697;SDS011;10508;50.956;4.640;2023-04-03T05:08:41;9.57;;;5.18;;
20697;SDS011;10508;50.956;4.640;2023-04-03T05:11:06;9.05;;;4.95;;
20697;SDS011;10508;50.956;4.640;2023-04-03T05:13:32;8.20;;;4.93;;
20697;SDS011;10508;50.956;4.640;2023-04-03T05:15:58;8.63;;;5.05;;
20697;SDS011;10508;50.956;4.640;2023-04-03T05:18:24;9.88;;;5.60;;
20697;SDS011;10508;50.956;4.640;2023-04-03T05:20:50;13.75;;;6.13;;
20697;SDS011;10508;50.956;4.640;2023-04-03T05:23:15;13.05;;;5.45;;
20697;SDS011;10508;50.956;4.640;2023-04-03T05:25:41;10.65;;;5.63;;
20697;SDS011;10508;50.956;4.640;2023-04-03T05:28:08;9.45;;;5.30;;
20697;SDS011;10508;50.956;4.640;2023-04-03T05:30:34;10.98;;;5.30;;
20697;SDS011;10508;50.956;4.640;2023-04-03T05:33:00;10.63;;;5.20;;
20697;SDS011;10508;50.956;4.640;2023-04-03T05:35:26;12.60;;;5.65;;
20697;SDS011;10508;50.956;4.640;2023-04-03T05:37:51;14.43;;;5.63;;
20697;SDS011;10508;50.956;4.640;2023-04-03T05:40:17;11.10;;;5.43;;
20697;SDS011;10508;50.956;4.640;2023-04-03T05:42:43;13.38;;;5.93;;
20697;SDS011;10508;50.956;4.640;2023-04-03T05:45:09;13.05;;;6.20;;
20697;SDS011;10508;50.956;4.640;2023-04-03T05:47:35;13.40;;;6.35;;
20697;SDS011;10508;50.956;4.640;2023-04-03T05:50:01;10.23;;;5.75;;
20697;SDS011;10508;50.956;4.640;2023-04-03T05:52:27;12.02;;;5.63;;
20697;SDS011;10508;50.956;4.640;2023-04-03T05:55:01;13.85;;;6.07;;
20697;SDS011;10508;50.956;4.640;2023-04-03T05:57:27;11.25;;;6.13;;
20697;SDS011;10508;50.956;4.640;2023-04-03T05:59:53;15.23;;;6.07;;
20697;SDS011;10508;50.956;4.640;2023-04-03T06:02:20;13.02;;;6.38;;
20697;SDS011;10508;50.956;4.640;2023-04-03T06:04:47;20.17;;;6.25;;
20697;SDS011;10508;50.956;4.640;2023-04-03T06:07:16;11.27;;;6.78;;
20697;SDS011;10508;50.956;4.640;2023-04-03T06:09:46;11.25;;;6.25;;
20697;SDS011;10508;50.956;4.640;2023-04-03T06:12:12;11.50;;;6.80;;
20697;SDS011;10508;50.956;4.640;2023-04-03T06:14:37;15.65;;;7.07;;
20697;SDS011;10508;50.956;4.640;2023-04-03T06:17:03;18.52;;;7.38;;
20697;SDS011;10508;50.956;4.640;2023-04-03T06:19:29;16.48;;;7.75;;
20697;SDS011;10508;50.956;4.640;2023-04-03T06:21:55;13.77;;;7.03;;
20697;SDS011;10508;50.956;4.640;2023-04-03T06:24:21;14.88;;;7.13;;
20697;SDS011;10508;50.956;4.640;2023-04-03T06:26:48;12.80;;;7.15;;
20697;SDS011;10508;50.956;4.640;2023-04-03T06:29:16;15.35;;;7.78;;
20697;SDS011;10508;50.956;4.640;2023-04-03T06:31:42;17.40;;;7.78;;
20697;SDS011;10508;50.956;4.640;2023-04-03T06:34:08;13.18;;;6.47;;
20697;SDS011;10508;50.956;4.640;2023-04-03T06:36:35;17.25;;;7.35;;
20697;SDS011;10508;50.956;4.640;2023-04-03T06:39:01;15.73;;;8.25;;
20697;SDS011;10508;50.956;4.640;2023-04-03T06:41:28;13.13;;;7.20;;
20697;SDS011;10508;50.956;4.640;2023-04-03T06:43:53;14.68;;;7.78;;
20697;SDS011;10508;50.956;4.640;2023-04-03T06:46:21;20.50;;;8.18;;
20697;SDS011;10508;50.956;4.640;2023-04-03T06:48:47;15.75;;;7.60;;
20697;SDS011;10508;50.956;4.640;2023-04-03T06:51:21;13.85;;;6.97;;
20697;SDS011;10508;50.956;4.640;2023-04-03T06:53:50;15.93;;;6.88;;
20697;SDS011;10508;50.956;4.640;2023-04-03T06:56:17;17.38;;;7.25;;
20697;SDS011;10508;50.956;4.640;2023-04-03T06:58:43;12.00;;;6.28;;
20697;SDS011;10508;50.956;4.640;2023-04-03T07:01:11;12.98;;;6.72;;
20697;SDS011;10508;50.956;4.640;2023-04-03T07:03:38;13.63;;;6.93;;
20697;SDS011;10508;50.956;4.640;2023-04-03T07:06:04;20.40;;;6.53;;
20697;SDS011;10508;50.956;4.640;2023-04-03T07:08:32;11.73;;;6.30;;
20697;SDS011;10508;50.956;4.640;2023-04-03T07:10:59;10.77;;;6.28;;
20697;SDS011;10508;50.956;4.640;2023-04-03T07:13:24;14.43;;;6.40;;
20697;SDS011;10508;50.956;4.640;2023-04-03T07:15:50;16.50;;;6.63;;
20697;SDS011;10508;50.956;4.640;2023-04-03T07:18:16;13.77;;;6.35;;
20697;SDS011;10508;50.956;4.640;2023-04-03T07:20:42;11.95;;;6.07;;
20697;SDS011;10508;50.956;4.640;2023-04-03T07:23:08;11.32;;;6.32;;
20697;SDS011;10508;50.956;4.640;2023-04-03T07:25:34;14.63;;;7.07;;
20697;SDS011;10508;50.956;4.640;2023-04-03T07:27:59;13.30;;;6.13;;
20697;SDS011;10508;50.956;4.640;2023-04-03T07:30:25;10.27;;;6.10;;
20697;SDS011;10508;50.956;4.640;2023-04-03T07:32:51;18.25;;;5.57;;
20697;SDS011;10508;50.956;4.640;2023-04-03T07:35:17;10.93;;;5.35;;
20697;SDS011;10508;50.956;4.640;2023-04-03T07:37:43;14.20;;;5.40;;
20697;SDS011;10508;50.956;4.640;2023-04-03T07:40:09;12.98;;;6.25;;
20697;SDS011;10508;50.956;4.640;2023-04-03T07:42:35;16.05;;;5.70;;
20697;SDS011;10508;50.956;4.640;2023-04-03T07:45:01;10.95;;;5.82;;
20697;SDS011;10508;50.956;4.640;2023-04-03T07:47:30;12.07;;;5.53;;
20697;SDS011;10508;50.956;4.640;2023-04-03T07:49:56;9.85;;;4.85;;
20697;SDS011;10508;50.956;4.640;2023-04-03T07:52:23;9.13;;;5.10;;
20697;SDS011;10508;50.956;4.640;2023-04-03T07:54:49;11.60;;;4.88;;
20697;SDS011;10508;50.956;4.640;2023-04-03T07:57:14;12.35;;;4.47;;
20697;SDS011;10508;50.956;4.640;2023-04-03T07:59:41;8.90;;;4.80;;
20697;SDS011;10508;50.956;4.640;2023-04-03T08:02:10;8.57;;;4.60;;
20697;SDS011;10508;50.956;4.640;2023-04-03T08:04:36;10.25;;;4.35;;
20697;SDS011;10508;50.956;4.640;2023-04-03T08:07:02;8.82;;;4.57;;
20697;SDS011;10508;50.956;4.640;2023-04-03T08:09:28;15.90;;;4.70;;
20697;SDS011;10508;50.956;4.640;2023-04-03T08:11:53;8.35;;;4.15;;
20697;SDS011;10508;50.956;4.640;2023-04-03T08:14:19;9.43;;;4.00;;
20697;SDS011;10508;50.956;4.640;2023-04-03T08:16:46;15.63;;;4.30;;
20697;SDS011;10508;50.956;4.640;2023-04-03T08:19:13;12.48;;;3.78;;
20697;SDS011;10508;50.956;4.640;2023-04-03T08:21:41;6.38;;;4.00;;
20697;SDS011;10508;50.956;4.640;2023-04-03T08:24:08;12.80;;;3.63;;
20697;SDS011;10508;50.956;4.640;2023-04-03T08:26:34;8.95;;;4.13;;
20697;SDS011;10508;50.956;4.640;2023-04-03T08:29:00;6.78;;;4.15;;
20697;SDS011;10508;50.956;4.640;2023-04-03T08:31:25;9.05;;;3.35;;
20697;SDS011;10508;50.956;4.640;2023-04-03T08:33:52;6.93;;;3.22;;
20697;SDS011;10508;50.956;4.640;2023-04-03T08:36:19;11.00;;;4.10;;
20697;SDS011;10508;50.956;4.640;2023-04-03T08:38:55;6.00;;;3.45;;
20697;SDS011;10508;50.956;4.640;2023-04-03T08:47:04;17.73;;;4.28;;
20697;SDS011;10508;50.956;4.640;2023-04-03T08:49:42;5.03;;;2.78;;
20697;SDS011;10508;50.956;4.640;2023-04-03T08:52:19;7.30;;;2.70;;
20697;SDS011;10508;50.956;4.640;2023-04-03T08:55:06;7.35;;;2.58;;
20697;SDS011;10508;50.956;4.640;2023-04-03T08:57:41;3.95;;;2.38;;
20697;SDS011;10508;50.956;4.640;2023-04-03T09:00:19;5.63;;;2.70;;
20697;SDS011;10508;50.956;4.640;2023-04-03T09:02:48;5.88;;;2.50;;
20697;SDS011;10508;50.956;4.640;2023-04-03T09:05:20;6.72;;;2.47;;
20697;SDS011;10508;50.956;4.640;2023-04-03T09:08:18;5.50;;;2.35;;
20697;SDS011;10508;50.956;4.640;2023-04-03T09:10:48;5.97;;;1.80;;
20697;SDS011;10508;50.956;4.640;2023-04-03T09:16:04;3.42;;;2.03;;
20697;SDS011;10508;50.956;4.640;2023-04-03T09:18:45;3.95;;;1.98;;
20697;SDS011;10508;50.956;4.640;2023-04-03T09:21:22;8.00;;;1.77;;
20697;SDS011;10508;50.956;4.640;2023-04-03T09:23:58;4.57;;;1.80;;
20697;SDS011;10508;50.956;4.640;2023-04-03T09:26:26;3.42;;;1.80;;
20697;SDS011;10508;50.956;4.640;2023-04-03T09:28:58;8.68;;;2.15;;
20697;SDS011;10508;50.956;4.640;2023-04-03T09:31:27;6.32;;;2.00;;
20697;SDS011;10508;50.956;4.640;2023-04-03T09:34:01;5.60;;;1.70;;
20697;SDS011;10508;50.956;4.640;2023-04-03T09:36:38;6.13;;;2.00;;
20697;SDS011;10508;50.956;4.640;2023-04-03T09:39:15;6.03;;;1.75;;
20697;SDS011;10508;50.956;4.640;2023-04-03T09:41:54;6.05;;;1.83;;
20697;SDS011;10508;50.956;4.640;2023-04-03T09:44:36;5.80;;;1.80;;
20697;SDS011;10508;50.956;4.640;2023-04-03T09:47:25;8.02;;;2.13;;
20697;SDS011;10508;50.956;4.640;2023-04-03T09:52:34;8.48;;;2.47;;
20697;SDS011;10508;50.956;4.640;2023-04-03T09:55:07;4.43;;;2.15;;
20697;SDS011;10508;50.956;4.640;2023-04-03T09:57:39;4.93;;;2.03;;
20697;SDS011;10508;50.956;4.640;2023-04-03T10:00:05;4.50;;;2.17;;
20697;SDS011;10508;50.956;4.640;2023-04-03T10:02:44;4.65;;;2.13;;
20697;SDS011;10508;50.956;4.640;2023-04-03T10:08:10;5.80;;;1.63;;
20697;SDS011;10508;50.956;4.640;2023-04-03T10:10:42;6.38;;;2.28;;
20697;SDS011;10508;50.956;4.640;2023-04-03T10:13:19;3.65;;;1.98;;
20697;SDS011;10508;50.956;4.640;2023-04-03T10:18:44;4.18;;;2.05;;
20697;SDS011;10508;50.956;4.640;2023-04-03T10:24:23;4.47;;;1.83;;
20697;SDS011;10508;50.956;4.640;2023-04-03T10:29:27;2.78;;;1.55;;
20697;SDS011;10508;50.956;4.640;2023-04-03T10:35:01;3.95;;;1.38;;
20697;SDS011;10508;50.956;4.640;2023-04-03T10:43:29;2.80;;;1.17;;
20697;SDS011;10508;50.956;4.640;2023-04-03T10:59:25;5.75;;;1.63;;
20697;SDS011;10508;50.956;4.640;2023-04-03T11:05:06;2.92;;;1.20;;
20697;SDS011;10508;50.956;4.640;2023-04-03T11:07:42;2.05;;;1.05;;
20697;SDS011;10508;50.956;4.640;2023-04-03T11:10:18;3.50;;;1.30;;
20697;SDS011;10508;50.956;4.640;2023-04-03T11:15:50;4.97;;;1.40;;
20697;SDS011;10508;50.956;4.640;2023-04-03T11:18:22;3.60;;;1.20;;
20697;SDS011;10508;50.956;4.640;2023-04-03T11:21:04;3.15;;;1.30;;
20697;SDS011;10508;50.956;4.640;2023-04-03T11:23:51;3.15;;;1.40;;
20697;SDS011;10508;50.956;4.640;2023-04-03T11:26:22;5.90;;;1.20;;
20697;SDS011;10508;50.956;4.640;2023-04-03T11:28:56;2.38;;;1.13;;
20697;SDS011;10508;50.956;4.640;2023-04-03T11:39:32;1.95;;;1.15;;
20697;SDS011;10508;50.956;4.640;2023-04-03T11:44:40;5.88;;;1.50;;
20697;SDS011;10508;50.956;4.640;2023-04-03T11:47:08;10.75;;;1.20;;
20697;SDS011;10508;50.956;4.640;2023-04-03T11:49:56;4.93;;;0.98;;
20697;SDS011;10508;50.956;4.640;2023-04-03T12:08:24;2.50;;;0.90;;
20697;SDS011;10508;50.956;4.640;2023-04-03T12:16:21;2.95;;;1.48;;
20697;SDS011;10508;50.956;4.640;2023-04-03T12:23:57;7.93;;;1.20;;
20697;SDS011;10508;50.956;4.640;2023-04-03T12:26:38;4.07;;;0.98;;
20697;SDS011;10508;50.956;4.640;2023-04-03T12:29:27;4.05;;;1.00;;
20697;SDS011;10508;50.956;4.640;2023-04-03T12:32:22;1.85;;;0.82;;
20697;SDS011;10508;50.956;4.640;2023-04-03T12:35:09;2.00;;;0.88;;
20697;SDS011;10508;50.956;4.640;2023-04-03T12:46:37;4.82;;;0.95;;
20697;SDS011;10508;50.956;4.640;2023-04-03T12:49:18;2.33;;;0.75;;
20697;SDS011;10508;50.956;4.640;2023-04-03T12:51:53;2.45;;;0.82;;
20697;SDS011;10508;50.956;4.640;2023-04-03T12:54:21;2.42;;;1.02;;
20697;SDS011;10508;50.956;4.640;2023-04-03T12:57:11;2.75;;;1.00;;
20697;SDS011;10508;50.956;4.640;2023-04-03T12:59:42;2.38;;;0.85;;
20697;SDS011;10508;50.956;4.640;2023-04-03T13:02:21;5.07;;;0.98;;
20697;SDS011;10508;50.956;4.640;2023-04-03T13:04:50;3.20;;;1.08;;
20697;SDS011;10508;50.956;4.640;2023-04-03T13:10:32;6.47;;;1.45;;
20697;SDS011;10508;50.956;4.640;2023-04-03T13:15:24;3.42;;;1.10;;
20697;SDS011;10508;50.956;4.640;2023-04-03T13:17:55;3.25;;;0.80;;
20697;SDS011;10508;50.956;4.640;2023-04-03T13:22:53;6.32;;;1.20;;
20697;SDS011;10508;50.956;4.640;2023-04-03T13:25:26;2.40;;;0.93;;
20697;SDS011;10508;50.956;4.640;2023-04-03T13:27:54;2.47;;;1.00;;
20697;SDS011;10508;50.956;4.640;2023-04-03T13:30:23;4.38;;;1.15;;
20697;SDS011;10508;50.956;4.640;2023-04-03T13:32:51;1.52;;;0.82;;
20697;SDS011;10508;50.956;4.640;2023-04-03T13:35:25;2.15;;;1.10;;
20697;SDS011;10508;50.956;4.640;2023-04-03T13:37:55;2.20;;;1.10;;
20697;SDS011;10508;50.956;4.640;2023-04-03T13:40:22;2.08;;;0.98;;
20697;SDS011;10508;50.956;4.640;2023-04-03T13:42:57;5.03;;;0.90;;
20697;SDS011;10508;50.956;4.640;2023-04-03T13:45:26;3.47;;;1.05;;
20697;SDS011;10508;50.956;4.640;2023-04-03T13:50:57;2.50;;;1.23;;
20697;SDS011;10508;50.956;4.640;2023-04-03T14:04:27;2.53;;;1.00;;
20697;SDS011;10508;50.956;4.640;2023-04-03T14:06:55;3.08;;;1.10;;
20697;SDS011;10508;50.956;4.640;2023-04-03T14:09:22;4.32;;;1.20;;
20697;SDS011;10508;50.956;4.640;2023-04-03T14:11:50;3.25;;;1.00;;
20697;SDS011;10508;50.956;4.640;2023-04-03T14:14:29;2.90;;;1.10;;
20697;SDS011;10508;50.956;4.640;2023-04-03T14:16:58;4.47;;;1.10;;
20697;SDS011;10508;50.956;4.640;2023-04-03T14:19:29;4.55;;;1.02;;
20697;SDS011;10508;50.956;4.640;2023-04-03T14:21:57;4.35;;;1.10;;
20697;SDS011;10508;50.956;4.640;2023-04-03T14:24:23;2.78;;;0.90;;
20697;SDS011;10508;50.956;4.640;2023-04-03T14:26:50;2.85;;;1.00;;
20697;SDS011;10508;50.956;4.640;2023-04-03T14:29:18;4.55;;;1.08;;
20697;SDS011;10508;50.956;4.640;2023-04-03T14:31:45;4.35;;;2.25;;
20697;SDS011;10508;50.956;4.640;2023-04-03T14:34:12;2.38;;;0.93;;
20697;SDS011;10508;50.956;4.640;2023-04-03T14:36:39;2.95;;;0.95;;
20697;SDS011;10508;50.956;4.640;2023-04-03T14:39:06;2.50;;;0.88;;
20697;SDS011;10508;50.956;4.640;2023-04-03T14:41:35;3.10;;;1.10;;
20697;SDS011;10508;50.956;4.640;2023-04-03T14:44:01;2.33;;;0.80;;
20697;SDS011;10508;50.956;4.640;2023-04-03T14:46:37;1.80;;;0.80;;
20697;SDS011;10508;50.956;4.640;2023-04-03T14:49:14;2.13;;;0.90;;
20697;SDS011;10508;50.956;4.640;2023-04-03T14:51:43;1.13;;;0.70;;
20697;SDS011;10508;50.956;4.640;2023-04-03T14:54:13;1.30;;;0.75;;
20697;SDS011;10508;50.956;4.640;2023-04-03T14:56:42;1.92;;;0.95;;
20697;SDS011;10508;50.956;4.640;2023-04-03T14:59:09;2.10;;;0.75;;
20697;SDS011;10508;50.956;4.640;2023-04-03T15:01:38;6.60;;;0.80;;
20697;SDS011;10508;50.956;4.640;2023-04-03T15:04:13;5.80;;;0.80;;
20697;SDS011;10508;50.956;4.640;2023-04-03T15:06:40;3.20;;;1.02;;
20697;SDS011;10508;50.956;4.640;2023-04-03T15:09:20;3.70;;;1.00;;
20697;SDS011;10508;50.956;4.640;2023-04-03T15:11:47;2.38;;;0.85;;
20697;SDS011;10508;50.956;4.640;2023-04-03T15:14:14;2.13;;;0.90;;
20697;SDS011;10508;50.956;4.640;2023-04-03T15:16:41;2.90;;;1.10;;
20697;SDS011;10508;50.956;4.640;2023-04-03T15:19:06;1.73;;;0.80;;
20697;SDS011;10508;50.956;4.640;2023-04-03T15:21:32;2.40;;;0.90;;
20697;SDS011;10508;50.956;4.640;2023-04-03T15:23:58;2.35;;;0.90;;
20697;SDS011;10508;50.956;4.640;2023-04-03T15:26:24;3.17;;;1.08;;
20697;SDS011;10508;50.956;4.640;2023-04-03T15:28:50;2.22;;;0.70;;
20697;SDS011;10508;50.956;4.640;2023-04-03T15:31:16;2.13;;;0.85;;
20697;SDS011;10508;50.956;4.640;2023-04-03T15:33:41;1.73;;;1.33;;
20697;SDS011;10508;50.956;4.640;2023-04-03T15:36:07;5.03;;;1.17;;
20697;SDS011;10508;50.956;4.640;2023-04-03T15:38:33;3.22;;;1.23;;
20697;SDS011;10508;50.956;4.640;2023-04-03T15:40:59;3.50;;;1.20;;
20697;SDS011;10508;50.956;4.640;2023-04-03T15:43:25;2.92;;;1.20;;
20697;SDS011;10508;50.956;4.640;2023-04-03T15:45:51;2.58;;;1.30;;
20697;SDS011;10508;50.956;4.640;2023-04-03T15:48:17;2.50;;;1.10;;
20697;SDS011;10508;50.956;4.640;2023-04-03T15:50:43;2.92;;;1.27;;
20697;SDS011;10508;50.956;4.640;2023-04-03T15:53:08;3.20;;;1.35;;
20697;SDS011;10508;50.956;4.640;2023-04-03T15:55:36;4.80;;;1.20;;
20697;SDS011;10508;50.956;4.640;2023-04-03T15:58:02;2.78;;;1.05;;
20697;SDS011;10508;50.956;4.640;2023-04-03T16:00:29;2.45;;;0.90;;
20697;SDS011;10508;50.956;4.640;2023-04-03T16:02:57;1.90;;;1.20;;
20697;SDS011;10508;50.956;4.640;2023-04-03T16:05:26;3.58;;;1.10;;
20697;SDS011;10508;50.956;4.640;2023-04-03T16:07:52;5.53;;;1.05;;
20697;SDS011;10508;50.956;4.640;2023-04-03T16:10:19;4.60;;;1.10;;
20697;SDS011;10508;50.956;4.640;2023-04-03T16:12:46;3.72;;;1.15;;
20697;SDS011;10508;50.956;4.640;2023-04-03T16:15:11;4.70;;;1.45;;
20697;SDS011;10508;50.956;4.640;2023-04-03T16:17:37;3.53;;;1.83;;
20697;SDS011;10508;50.956;4.640;2023-04-03T16:20:05;3.47;;;1.42;;
20697;SDS011;10508;50.956;4.640;2023-04-03T16:22:33;3.88;;;1.30;;
20697;SDS011;10508;50.956;4.640;2023-04-03T16:24:59;2.38;;;1.20;;
20697;SDS011;10508;50.956;4.640;2023-04-03T16:27:26;2.78;;;0.98;;
20697;SDS011;10508;50.956;4.640;2023-04-03T16:29:56;2.65;;;1.00;;
20697;SDS011;10508;50.956;4.640;2023-04-03T16:32:22;2.85;;;1.10;;
20697;SDS011;10508;50.956;4.640;2023-04-03T16:34:49;3.53;;;1.02;;
20697;SDS011;10508;50.956;4.640;2023-04-03T16:37:15;2.38;;;1.10;;
20697;SDS011;10508;50.956;4.640;2023-04-03T16:39:41;2.13;;;0.88;;
20697;SDS011;10508;50.956;4.640;2023-04-03T16:42:07;2.40;;;1.10;;
20697;SDS011;10508;50.956;4.640;2023-04-03T16:44:34;2.78;;;1.05;;
20697;SDS011;10508;50.956;4.640;2023-04-03T16:47:00;2.95;;;1.20;;
20697;SDS011;10508;50.956;4.640;2023-04-03T16:49:26;5.35;;;0.88;;
20697;SDS011;10508;50.956;4.640;2023-04-03T16:51:57;2.35;;;1.10;;
20697;SDS011;10508;50.956;4.640;2023-04-03T16:54:22;2.40;;;0.95;;
20697;SDS011;10508;50.956;4.640;2023-04-03T16:56:48;2.83;;;0.95;;
20697;SDS011;10508;50.956;4.640;2023-04-03T16:59:15;2.13;;;1.35;;
20697;SDS011;10508;50.956;4.640;2023-04-03T17:01:40;5.43;;;1.10;;
20697;SDS011;10508;50.956;4.640;2023-04-03T17:04:06;2.67;;;0.95;;
20697;SDS011;10508;50.956;4.640;2023-04-03T17:06:32;4.60;;;1.00;;